createdAt,value
2018-07-24T00:01:30.365Z,4.50
2018-07-24T00:04:04.522Z,4.77
2018-07-24T00:06:38.897Z,5.03
2018-07-24T00:09:13.157Z,4.60
2018-07-24T00:11:47.321Z,4.53
2018-07-24T00:14:21.469Z,5.30
2018-07-24T00:16:55.717Z,5.30
2018-07-24T00:19:30.048Z,4.87
2018-07-24T00:22:04.108Z,4.90
2018-07-24T00:24:38.377Z,4.70
2018-07-24T00:27:12.501Z,4.80
2018-07-24T00:29:46.677Z,4.90
2018-07-24T00:32:21.046Z,5.00
2018-07-24T00:34:55.470Z,5.03
2018-07-24T00:37:29.408Z,4.73
2018-07-24T00:40:03.591Z,4.33
2018-07-24T00:42:37.985Z,4.87
2018-07-24T00:45:12.347Z,4.90
2018-07-24T00:47:46.678Z,5.50
2018-07-24T00:50:21.078Z,5.07
2018-07-24T00:52:55.234Z,5.13
2018-07-24T00:55:29.577Z,4.83
2018-07-24T00:58:03.850Z,4.70
2018-07-24T01:00:38.058Z,4.70
2018-07-24T01:03:12.461Z,5.17
2018-07-24T01:05:46.940Z,5.40
2018-07-24T01:08:21.232Z,5.00
2018-07-24T01:10:55.640Z,4.90
2018-07-24T01:13:29.965Z,5.27
2018-07-24T01:16:04.149Z,4.70
2018-07-24T01:18:38.379Z,5.20
2018-07-24T01:21:12.781Z,5.53
2018-07-24T01:23:47.081Z,5.07
2018-07-24T01:26:21.313Z,5.53
2018-07-24T01:28:55.628Z,5.33
2018-07-24T01:31:29.965Z,5.37
2018-07-24T01:34:04.169Z,4.93
2018-07-24T01:36:38.425Z,4.83
2018-07-24T01:39:12.560Z,5.30
2018-07-24T01:41:46.786Z,5.57
2018-07-24T01:44:21.419Z,5.87
2018-07-24T01:46:55.865Z,4.97
2018-07-24T01:49:30.145Z,5.70
2018-07-24T01:52:04.354Z,5.37
2018-07-24T01:54:38.626Z,5.80
2018-07-24T01:57:12.950Z,5.30
2018-07-24T01:59:47.261Z,5.90
2018-07-24T02:02:21.491Z,5.53
2018-07-24T02:04:55.754Z,5.50
2018-07-24T02:07:30.046Z,5.90
2018-07-24T02:10:04.758Z,5.30
2018-07-24T02:12:39.130Z,5.17
2018-07-24T02:15:13.399Z,6.00
2018-07-24T02:17:47.733Z,6.13
2018-07-24T02:20:21.994Z,5.40
2018-07-24T02:22:56.186Z,5.33
2018-07-24T02:25:30.373Z,5.50
2018-07-24T02:28:05.302Z,5.33
2018-07-24T02:30:39.620Z,5.23
2018-07-24T02:33:13.920Z,6.03
2018-07-24T02:35:48.151Z,5.13
2018-07-24T02:38:22.482Z,5.60
2018-07-24T02:40:56.733Z,5.83
2018-07-24T02:43:31.106Z,5.50
2018-07-24T02:46:05.411Z,6.23
2018-07-24T02:48:39.811Z,6.53
2018-07-24T02:51:13.990Z,5.67
2018-07-24T02:53:48.270Z,5.83
2018-07-24T02:56:22.406Z,6.30
2018-07-24T02:58:56.758Z,6.20
2018-07-24T03:01:31.071Z,5.90
2018-07-24T03:04:05.486Z,6.00
2018-07-24T03:06:39.613Z,6.30
2018-07-24T03:09:13.902Z,6.50
2018-07-24T03:11:48.251Z,6.43
2018-07-24T03:14:22.411Z,6.30
2018-07-24T03:16:56.703Z,6.90
2018-07-24T03:19:37.500Z,6.67
2018-07-24T03:22:11.806Z,6.20
2018-07-24T03:24:46.138Z,6.63
2018-07-24T03:27:20.418Z,6.80
2018-07-24T03:29:54.686Z,6.13
2018-07-24T03:32:28.890Z,6.80
2018-07-24T03:35:03.203Z,5.77
2018-07-24T03:37:37.373Z,5.73
2018-07-24T03:40:11.756Z,6.47
2018-07-24T03:42:45.909Z,7.07
2018-07-24T03:45:20.261Z,7.07
2018-07-24T03:47:54.641Z,6.10
2018-07-24T03:50:28.823Z,6.10
2018-07-24T03:53:03.080Z,6.10
2018-07-24T03:55:37.363Z,6.40
2018-07-24T03:58:11.722Z,6.60
2018-07-24T04:00:45.981Z,6.30
2018-07-24T04:03:20.273Z,6.90
2018-07-24T04:05:54.737Z,6.83
2018-07-24T04:08:29.022Z,8.10
2018-07-24T04:11:03.355Z,7.13
2018-07-24T04:13:37.650Z,7.40
2018-07-24T04:16:11.793Z,7.47
2018-07-24T04:18:48.189Z,7.13
2018-07-24T04:21:22.590Z,6.97
2018-07-24T04:23:56.945Z,6.50
2018-07-24T04:26:31.298Z,7.47
2018-07-24T04:29:05.654Z,8.00
2018-07-24T04:31:39.842Z,6.97
2018-07-24T04:34:14.010Z,7.17
2018-07-24T04:36:48.190Z,7.43
2018-07-24T04:39:22.585Z,7.57
2018-07-24T04:41:56.975Z,7.10
2018-07-24T04:44:31.224Z,7.23
2018-07-24T04:47:05.450Z,7.40
2018-07-24T04:49:39.746Z,7.23
2018-07-24T04:52:14.060Z,8.27
2018-07-24T04:54:48.326Z,7.53
2018-07-24T04:57:22.477Z,8.20
2018-07-24T04:59:56.725Z,7.43
2018-07-24T05:02:32.001Z,7.23
2018-07-24T05:05:06.350Z,7.80
2018-07-24T05:07:40.574Z,8.27
2018-07-24T05:10:14.945Z,9.03
2018-07-24T05:12:49.115Z,8.70
2018-07-24T05:15:23.350Z,8.07
2018-07-24T05:17:57.790Z,7.30
2018-07-24T05:20:32.169Z,9.03
2018-07-24T05:23:06.438Z,8.17
2018-07-24T05:25:40.629Z,9.67
2018-07-24T05:28:14.861Z,9.23
2018-07-24T05:30:49.175Z,9.70
2018-07-24T05:33:23.406Z,9.47
2018-07-24T05:35:57.598Z,8.70
2018-07-24T05:38:32.058Z,9.10
2018-07-24T05:41:06.429Z,8.33
2018-07-24T05:43:40.867Z,7.40
2018-07-24T05:46:15.135Z,7.80
2018-07-24T05:48:49.557Z,8.50
2018-07-24T05:51:23.891Z,7.77
2018-07-24T05:53:58.173Z,7.40
2018-07-24T05:56:32.506Z,7.37
2018-07-24T05:59:06.762Z,7.33
2018-07-24T06:01:40.931Z,7.27
2018-07-24T06:04:15.094Z,7.57
2018-07-24T06:06:49.374Z,7.13
2018-07-24T06:09:23.551Z,7.57
2018-07-24T06:11:57.841Z,7.03
2018-07-24T06:14:32.208Z,6.30
2018-07-24T06:17:06.634Z,6.97
2018-07-24T06:19:40.952Z,6.77
2018-07-24T06:22:15.330Z,6.17
2018-07-24T06:24:49.645Z,6.70
2018-07-24T06:27:23.950Z,7.00
2018-07-24T06:29:58.282Z,6.13
2018-07-24T06:32:32.451Z,6.13
2018-07-24T06:35:06.966Z,6.20
2018-07-24T06:37:41.034Z,5.80
2018-07-24T06:40:15.272Z,5.47
2018-07-24T06:42:49.725Z,5.63
2018-07-24T06:45:24.022Z,6.23
2018-07-24T06:47:58.229Z,5.60
2018-07-24T06:50:32.513Z,6.97
2018-07-24T06:53:06.789Z,6.13
2018-07-24T06:55:41.131Z,6.83
2018-07-24T06:58:15.446Z,6.77
2018-07-24T07:00:49.846Z,5.80
2018-07-24T07:03:24.069Z,6.80
2018-07-24T07:05:58.267Z,5.80
2018-07-24T07:08:32.656Z,5.80
2018-07-24T07:11:07.166Z,5.67
2018-07-24T07:13:41.414Z,5.77
2018-07-24T07:16:15.693Z,5.63
2018-07-24T07:18:49.966Z,6.53
2018-07-24T07:21:24.265Z,5.70
2018-07-24T07:23:58.542Z,5.47
2018-07-24T07:26:32.986Z,5.60
2018-07-24T07:29:07.294Z,5.60
2018-07-24T07:31:41.522Z,5.17
2018-07-24T07:34:15.821Z,5.20
2018-07-24T07:36:49.976Z,5.20
2018-07-24T07:39:24.239Z,5.40
2018-07-24T07:41:58.560Z,5.07
2018-07-24T07:44:32.787Z,4.57
2018-07-24T07:47:06.991Z,5.40
2018-07-24T07:49:41.170Z,5.00
2018-07-24T07:52:15.486Z,4.63
2018-07-24T07:54:49.767Z,4.43
2018-07-24T07:57:24.086Z,4.80
2018-07-24T07:59:58.543Z,4.50
2018-07-24T08:02:32.902Z,4.00
2018-07-24T08:05:07.201Z,4.30
2018-07-24T08:07:41.481Z,4.33
2018-07-24T08:10:15.846Z,4.70
2018-07-24T08:12:50.175Z,4.40
2018-07-24T08:15:24.411Z,4.27
2018-07-24T08:17:58.813Z,4.20
2018-07-24T08:20:33.316Z,4.17
2018-07-24T08:23:07.630Z,4.00
2018-07-24T08:25:41.942Z,3.80
2018-07-24T08:28:16.323Z,3.63
2018-07-24T08:30:50.518Z,3.80
2018-07-24T08:33:24.979Z,3.90
2018-07-24T08:35:59.305Z,3.87
2018-07-24T08:38:33.495Z,3.63
2018-07-24T08:41:07.978Z,4.07
2018-07-24T08:43:42.277Z,4.10
2018-07-24T08:46:16.891Z,3.63
2018-07-24T08:48:51.159Z,3.97
2018-07-24T08:51:25.561Z,4.10
2018-07-24T08:53:59.968Z,4.20
2018-07-24T08:56:33.947Z,3.97
2018-07-24T08:59:08.258Z,3.57
2018-07-24T09:01:42.525Z,3.50
2018-07-24T09:04:16.870Z,3.70
2018-07-24T09:06:51.009Z,4.17
2018-07-24T09:09:25.097Z,4.13
2018-07-24T09:11:59.464Z,3.53
2018-07-24T09:14:33.827Z,4.30
2018-07-24T09:17:08.043Z,4.13
2018-07-24T09:19:42.263Z,4.00
2018-07-24T09:22:16.577Z,4.13
2018-07-24T09:24:50.838Z,3.77
2018-07-24T09:27:25.167Z,3.77
2018-07-24T09:29:59.329Z,3.93
2018-07-24T09:32:33.672Z,3.97
2018-07-24T09:35:07.983Z,4.03
2018-07-24T09:37:42.429Z,4.17
2018-07-24T09:40:16.736Z,4.03
2018-07-24T09:42:51.015Z,3.57
2018-07-24T09:45:25.302Z,3.80
2018-07-24T09:47:59.545Z,3.57
2018-07-24T09:50:33.878Z,3.77
2018-07-24T09:53:07.993Z,3.90
2018-07-24T09:55:42.298Z,3.90
2018-07-24T09:58:16.609Z,3.63
2018-07-24T10:00:56.492Z,3.80
2018-07-24T10:03:30.775Z,4.67
2018-07-24T10:06:05.062Z,3.33
2018-07-24T10:08:39.369Z,3.67
2018-07-24T10:11:13.585Z,3.63
2018-07-24T10:13:47.983Z,3.67
2018-07-24T10:16:22.273Z,4.13
2018-07-24T10:18:56.734Z,4.60
2018-07-24T10:21:30.953Z,4.20
2018-07-24T10:24:05.357Z,4.47
2018-07-24T10:26:39.669Z,4.40
2018-07-24T10:29:14.015Z,4.23
2018-07-24T10:31:48.286Z,3.87
2018-07-24T10:34:22.695Z,3.70
2018-07-24T10:36:57.102Z,3.67
2018-07-24T10:39:31.323Z,3.90
2018-07-24T10:42:05.533Z,3.50
2018-07-24T10:44:39.865Z,3.63
2018-07-24T10:47:14.202Z,3.50
2018-07-24T10:49:48.357Z,3.80
2018-07-24T10:52:22.670Z,3.83
2018-07-24T10:54:56.728Z,3.80
2018-07-24T10:57:31.057Z,4.43
2018-07-24T11:00:05.697Z,4.13
2018-07-24T11:02:39.997Z,3.83
2018-07-24T11:05:14.312Z,3.60
2018-07-24T11:07:48.723Z,3.80
2018-07-24T11:10:23.037Z,3.90
2018-07-24T11:12:57.358Z,3.77
2018-07-24T11:15:31.688Z,3.97
2018-07-24T11:18:06.002Z,3.80
2018-07-24T11:20:40.263Z,3.83
2018-07-24T11:23:14.812Z,4.33
2018-07-24T11:25:48.954Z,4.13
2018-07-24T11:28:22.984Z,3.73
2018-07-24T11:30:57.237Z,4.30
2018-07-24T11:33:31.702Z,3.67
2018-07-24T11:36:06.019Z,4.73
2018-07-24T11:38:40.150Z,4.50
2018-07-24T11:41:14.361Z,4.20
2018-07-24T11:43:48.809Z,4.23
2018-07-24T11:46:23.102Z,3.67
2018-07-24T11:48:57.294Z,4.50
2018-07-24T11:51:31.635Z,4.20
2018-07-24T11:54:05.899Z,4.10
2018-07-24T11:56:40.282Z,4.27
2018-07-24T11:59:14.655Z,4.30
2018-07-24T12:01:48.934Z,3.93
2018-07-24T12:04:23.103Z,3.83
2018-07-24T12:06:57.307Z,3.60
2018-07-24T12:09:31.635Z,4.00
2018-07-24T12:12:05.952Z,4.30
2018-07-24T12:14:40.444Z,4.27
2018-07-24T12:17:14.703Z,4.60
2018-07-24T12:19:49.013Z,4.43
2018-07-24T12:22:23.183Z,3.87
2018-07-24T12:24:57.661Z,3.70
2018-07-24T12:27:31.895Z,3.63
2018-07-24T12:30:06.121Z,3.77
2018-07-24T12:32:40.541Z,3.67
2018-07-24T12:35:14.839Z,4.17
2018-07-24T12:37:49.128Z,3.70
2018-07-24T12:40:23.442Z,3.97
2018-07-24T12:42:57.766Z,3.97
2018-07-24T12:45:32.125Z,3.63
2018-07-24T12:48:06.385Z,3.60
2018-07-24T12:50:40.729Z,3.70
2018-07-24T12:53:14.980Z,3.80
2018-07-24T12:55:49.258Z,3.90
2018-07-24T12:58:23.463Z,3.47
2018-07-24T13:00:57.725Z,3.90
2018-07-24T13:03:31.923Z,3.67
2018-07-24T13:06:06.618Z,3.50
2018-07-24T13:08:40.930Z,3.90
2018-07-24T13:11:15.221Z,3.73
2018-07-24T13:13:49.781Z,3.30
2018-07-24T13:16:24.069Z,3.70
2018-07-24T13:18:58.479Z,3.67
2018-07-24T13:21:32.749Z,3.97
2018-07-24T13:24:07.091Z,3.43
2018-07-24T13:26:41.362Z,4.13
2018-07-24T13:29:15.670Z,3.70
2018-07-24T13:31:50.059Z,3.83
2018-07-24T13:34:24.398Z,3.53
2018-07-24T13:36:58.532Z,3.37
2018-07-24T13:39:32.718Z,3.60
2018-07-24T13:42:06.881Z,3.50
2018-07-24T13:44:41.124Z,3.33
2018-07-24T13:47:15.646Z,3.50
2018-07-24T13:49:50.055Z,3.50
2018-07-24T13:52:24.224Z,3.40
2018-07-24T13:54:58.494Z,3.65
2018-07-24T13:57:32.793Z,3.17
2018-07-24T14:00:07.101Z,3.80
2018-07-24T14:02:41.345Z,3.45
2018-07-24T14:05:15.575Z,3.58
2018-07-24T14:07:49.897Z,3.58
2018-07-24T14:10:24.077Z,3.40
2018-07-24T14:12:58.275Z,3.20
2018-07-24T14:15:32.550Z,4.20
2018-07-24T14:18:06.855Z,3.60
2018-07-24T14:20:41.130Z,3.50
2018-07-24T14:23:15.405Z,3.22
2018-07-24T14:25:49.666Z,3.50
2018-07-24T14:28:23.810Z,3.45
2018-07-24T14:30:58.082Z,3.22
2018-07-24T14:33:32.332Z,3.22
2018-07-24T14:36:06.669Z,3.52
2018-07-24T14:38:40.667Z,3.58
2018-07-24T14:41:14.875Z,3.45
2018-07-24T14:43:49.248Z,3.65
2018-07-24T14:46:23.509Z,3.47
2018-07-24T14:48:57.684Z,3.30
2018-07-24T14:51:32.107Z,3.40
2018-07-24T14:54:06.525Z,3.37
2018-07-24T14:56:40.873Z,3.55
2018-07-24T14:59:15.088Z,3.58
2018-07-24T15:01:49.354Z,3.60
2018-07-24T15:04:23.418Z,3.70
2018-07-24T15:06:57.631Z,3.40
2018-07-24T15:09:31.938Z,3.42
2018-07-24T15:12:06.593Z,3.42
2018-07-24T15:14:40.847Z,3.62
2018-07-24T15:17:15.154Z,3.15
2018-07-24T15:19:49.477Z,3.50
2018-07-24T15:22:23.685Z,3.47
2018-07-24T15:24:57.971Z,3.37
2018-07-24T15:27:32.213Z,3.42
2018-07-24T15:30:07.835Z,3.42
2018-07-24T15:32:43.191Z,2.90
2018-07-24T15:35:17.351Z,3.75
2018-07-24T15:37:51.629Z,3.20
2018-07-24T15:40:25.810Z,3.72
2018-07-24T15:42:59.966Z,3.40
2018-07-24T15:45:34.255Z,3.22
2018-07-24T15:48:08.412Z,3.22
2018-07-24T15:50:42.591Z,3.17
2018-07-24T15:53:16.879Z,3.17
2018-07-24T15:55:51.354Z,3.72
2018-07-24T15:58:25.570Z,3.17
2018-07-24T16:00:59.867Z,2.98
2018-07-24T16:03:34.166Z,3.25
2018-07-24T16:06:08.556Z,3.58
2018-07-24T16:08:42.851Z,3.30
2018-07-24T16:11:17.201Z,3.00
2018-07-24T16:13:51.494Z,3.12
2018-07-24T16:16:25.858Z,3.30
2018-07-24T16:19:00.188Z,3.15
2018-07-24T16:21:34.561Z,3.52
2018-07-24T16:24:08.790Z,3.47
2018-07-24T16:26:43.151Z,3.22
2018-07-24T16:29:17.403Z,3.22
2018-07-24T16:31:51.806Z,3.15
2018-07-24T16:34:26.105Z,3.33
2018-07-24T16:37:00.477Z,3.08
2018-07-24T16:39:34.654Z,3.08
2018-07-24T16:42:09.006Z,3.17
2018-07-24T16:44:49.054Z,3.12
2018-07-24T16:47:23.207Z,2.95
2018-07-24T16:49:57.463Z,2.75
2018-07-24T16:52:31.805Z,3.30
2018-07-24T16:55:06.134Z,3.05
2018-07-24T16:57:40.474Z,3.42
2018-07-24T17:00:14.737Z,2.87
2018-07-24T17:02:49.083Z,2.87
2018-07-24T17:05:23.372Z,2.77
2018-07-24T17:07:57.809Z,3.33
2018-07-24T17:10:32.074Z,4.17
2018-07-24T17:13:06.482Z,3.22
2018-07-24T17:15:40.681Z,3.10
2018-07-24T17:18:15.006Z,4.08
2018-07-24T17:20:49.259Z,3.05
2018-07-24T17:23:23.692Z,3.00
2018-07-24T17:25:58.006Z,5.20
2018-07-24T17:28:32.646Z,3.08
2018-07-24T17:31:07.109Z,2.92
2018-07-24T17:33:41.287Z,2.60
2018-07-24T17:36:15.765Z,2.80
2018-07-24T17:38:50.146Z,2.70
2018-07-24T17:41:24.445Z,2.42
2018-07-24T17:43:58.802Z,3.08
2018-07-24T17:46:33.107Z,2.83
2018-07-24T17:49:07.729Z,2.62
2018-07-24T17:51:42.074Z,2.87
2018-07-24T17:54:16.622Z,2.70
2018-07-24T17:56:50.929Z,2.80
2018-07-24T17:59:25.205Z,2.98
2018-07-24T18:01:59.344Z,2.80
2018-07-24T18:04:33.593Z,2.55
2018-07-24T18:07:07.989Z,2.92
2018-07-24T18:09:42.080Z,2.52
2018-07-24T18:12:16.230Z,2.42
2018-07-24T18:14:50.642Z,2.47
2018-07-24T18:17:24.914Z,2.70
2018-07-24T18:19:59.133Z,2.75
2018-07-24T18:22:33.156Z,2.42
2018-07-24T18:25:07.445Z,2.52
2018-07-24T18:27:41.996Z,2.90
2018-07-24T18:30:16.279Z,2.80
2018-07-24T18:32:50.723Z,2.60
2018-07-24T18:35:24.938Z,2.70
2018-07-24T18:37:59.426Z,2.30
2018-07-24T18:40:33.722Z,2.60
2018-07-24T18:43:07.886Z,2.92
2018-07-24T18:45:42.106Z,2.80
2018-07-24T18:48:16.348Z,2.80
2018-07-24T18:50:50.771Z,2.83
2018-07-24T18:53:25.215Z,3.00
2018-07-24T18:55:59.565Z,2.70
2018-07-24T18:58:34.202Z,2.90
2018-07-24T19:01:09.283Z,2.67
2018-07-24T19:03:43.562Z,2.67
2018-07-24T19:06:17.851Z,2.95
2018-07-24T19:08:52.293Z,3.00
2018-07-24T19:11:26.593Z,3.20
2018-07-24T19:14:00.803Z,3.23
2018-07-24T19:16:35.106Z,3.00
2018-07-24T19:19:09.683Z,2.60
2018-07-24T19:21:44.043Z,2.70
2018-07-24T19:24:18.398Z,2.73
2018-07-24T19:26:52.761Z,3.00
2018-07-24T19:29:27.113Z,2.97
2018-07-24T19:32:01.346Z,2.80
2018-07-24T19:34:35.649Z,3.07
2018-07-24T19:37:09.791Z,3.30
2018-07-24T19:39:44.046Z,3.13
2018-07-24T19:42:18.225Z,2.83
2018-07-24T19:44:52.498Z,3.30
2018-07-24T19:47:26.797Z,2.93
2018-07-24T19:50:01.246Z,3.20
2018-07-24T19:52:35.586Z,3.00
2018-07-24T19:55:09.867Z,3.13
2018-07-24T19:57:44.137Z,3.30
2018-07-24T20:00:18.557Z,2.90
2018-07-24T20:02:52.837Z,2.87
2018-07-24T20:05:27.233Z,2.77
2018-07-24T20:08:01.518Z,3.20
2018-07-24T20:10:35.868Z,2.87
2018-07-24T20:13:10.241Z,2.93
2018-07-24T20:15:44.527Z,2.93
2018-07-24T20:18:18.778Z,3.03
2018-07-24T20:20:53.107Z,2.53
2018-07-24T20:23:27.402Z,3.00
2018-07-24T20:26:01.600Z,3.40
2018-07-24T20:28:35.845Z,3.03
2018-07-24T20:31:10.259Z,3.30
2018-07-24T20:33:44.506Z,3.50
2018-07-24T20:36:18.836Z,3.63
2018-07-24T20:38:53.179Z,3.43
2018-07-24T20:41:27.519Z,3.30
2018-07-24T20:44:01.574Z,3.10
2018-07-24T20:46:35.786Z,3.37
2018-07-24T20:49:10.095Z,3.60
2018-07-24T20:51:44.399Z,3.40
2018-07-24T20:54:18.727Z,3.50
2018-07-24T20:56:52.967Z,3.43
2018-07-24T20:59:27.286Z,3.13
2018-07-24T21:02:01.541Z,3.60
2018-07-24T21:04:35.934Z,4.17
2018-07-24T21:07:10.222Z,3.80
2018-07-24T21:09:45.316Z,3.80
2018-07-24T21:12:19.598Z,3.10
2018-07-24T21:14:53.756Z,3.27
2018-07-24T21:17:28.112Z,3.50
2018-07-24T21:20:02.458Z,3.50
2018-07-24T21:22:36.692Z,3.50
2018-07-24T21:25:11.116Z,3.63
2018-07-24T21:27:45.345Z,3.67
2018-07-24T21:30:19.654Z,3.07
2018-07-24T21:32:53.922Z,3.57
2018-07-24T21:35:28.199Z,3.37
2018-07-24T21:38:02.351Z,3.33
2018-07-24T21:40:36.782Z,3.40
2018-07-24T21:43:11.033Z,3.47
2018-07-24T21:45:45.267Z,3.63
2018-07-24T21:48:19.454Z,4.60
2018-07-24T21:50:53.758Z,3.83
2018-07-24T21:53:28.025Z,3.63
2018-07-24T21:56:02.250Z,3.30
2018-07-24T21:58:36.489Z,4.10
2018-07-24T22:01:13.017Z,3.77
2018-07-24T22:03:47.283Z,3.53
2018-07-24T22:06:21.460Z,3.90
2018-07-24T22:08:55.917Z,3.57
2018-07-24T22:11:30.090Z,4.00
2018-07-24T22:14:04.426Z,3.90
2018-07-24T22:16:38.781Z,3.90
2018-07-24T22:19:12.946Z,3.77
2018-07-24T22:21:47.213Z,3.80
2018-07-24T22:24:21.457Z,3.93
2018-07-24T22:26:55.753Z,4.10
2018-07-24T22:29:30.035Z,3.77
2018-07-24T22:32:04.140Z,4.63
2018-07-24T22:34:38.349Z,3.60
2018-07-24T22:37:12.621Z,3.77
2018-07-24T22:39:46.870Z,3.80
2018-07-24T22:42:21.242Z,3.07
2018-07-24T22:44:55.686Z,3.47
2018-07-24T22:47:29.877Z,4.27
2018-07-24T22:50:04.474Z,3.83
2018-07-24T22:52:38.761Z,3.63
2018-07-24T22:55:13.021Z,3.37
2018-07-24T22:57:47.433Z,3.70
2018-07-24T23:00:21.663Z,3.80
2018-07-24T23:02:56.297Z,4.17
2018-07-24T23:05:30.614Z,3.40
2018-07-24T23:08:05.086Z,3.63
2018-07-24T23:10:39.401Z,3.70
2018-07-24T23:13:13.625Z,4.10
2018-07-24T23:15:47.890Z,3.73
2018-07-24T23:18:22.041Z,3.53
2018-07-24T23:20:56.238Z,3.30
2018-07-24T23:23:30.553Z,3.57
2018-07-24T23:26:04.745Z,3.60
2018-07-24T23:28:39.032Z,4.20
2018-07-24T23:31:13.421Z,3.40
2018-07-24T23:33:47.884Z,3.30
2018-07-24T23:36:22.021Z,4.20
2018-07-24T23:38:56.057Z,3.97
2018-07-24T23:41:30.246Z,3.97
2018-07-24T23:44:04.781Z,4.37
2018-07-24T23:46:39.325Z,3.80
2018-07-24T23:49:13.482Z,4.00
2018-07-24T23:51:47.701Z,3.87
2018-07-24T23:54:21.933Z,3.60
2018-07-24T23:56:56.218Z,3.60
2018-07-24T23:59:30.382Z,4.07
